Time;durP1;ratioP1;P1;durP2;ratioP2;P2;SDS_P1;SDS_P2;PMS_P1;PMS_P2;Temp;Humidity;BMP_temperature;BMP_pressure;BME280_temperature;BME280_humidity;BME280_pressure;Samples;Min_cycle;Max_cycle;Signal;HPM_P1;HPM_P2
2023/10/28 00:01:45;;;;;;;3.25;1.02;;;;;;;;;;4998413;28;20409;-20
2023/10/28 00:04:11;;;;;;;3.22;0.90;;;;;;;;;;4998204;28;20122;-18
2023/10/28 00:06:39;;;;;;;2.08;1.35;;;;;;;;;;4998284;28;20027;-21
2023/10/28 00:09:05;;;;;;;1.30;0.80;;;;;;;;;;4998761;28;20061;-18
2023/10/28 00:11:32;;;;;;;5.75;2.20;;;;;;;;;;4998455;28;20031;-21
2023/10/28 00:13:58;;;;;;;5.65;1.80;;;;;;;;;;4998041;28;20193;-22
2023/10/28 00:16:24;;;;;;;2.72;1.08;;;;;;;;;;4998429;28;20066;-21
2023/10/28 00:18:50;;;;;;;2.95;1.00;;;;;;;;;;4998070;28;20088;-18
2023/10/28 00:21:18;;;;;;;1.20;0.70;;;;;;;;;;4998085;28;20381;-27
2023/10/28 00:23:44;;;;;;;2.38;0.80;;;;;;;;;;4997874;28;20023;-19
2023/10/28 00:26:10;;;;;;;2.80;0.95;;;;;;;;;;4996968;28;20025;-21
2023/10/28 00:28:37;;;;;;;1.48;1.10;;;;;;;;;;4997912;28;20026;-21
2023/10/28 00:31:04;;;;;;;1.75;1.23;;;;;;;;;;4998134;28;20108;-19
2023/10/28 00:33:30;;;;;;;3.40;1.45;;;;;;;;;;4997748;28;20050;-19
2023/10/28 00:35:56;;;;;;;2.17;1.15;;;;;;;;;;4996823;28;20117;-19
2023/10/28 00:38:23;;;;;;;1.17;0.73;;;;;;;;;;4997988;28;20026;-18
2023/10/28 00:40:49;;;;;;;1.48;1.10;;;;;;;;;;4997608;28;20026;-18
2023/10/28 00:43:16;;;;;;;1.70;1.15;;;;;;;;;;4997490;28;20042;-19
2023/10/28 00:45:42;;;;;;;3.28;1.02;;;;;;;;;;4997600;28;20197;-21
2023/10/28 00:48:09;;;;;;;1.90;0.95;;;;;;;;;;4997511;28;20038;-18
2023/10/28 00:50:35;;;;;;;1.90;0.95;;;;;;;;;;4997475;28;20025;-18
2023/10/28 00:53:02;;;;;;;2.83;1.48;;;;;;;;;;4997365;28;20038;-22
2023/10/28 00:55:30;;;;;;;1.23;0.90;;;;;;;;;;4997427;28;20037;-19
2023/10/28 00:57:57;;;;;;;3.45;1.27;;;;;;;;;;4997408;28;20018;-18
2023/10/28 01:00:24;;;;;;;1.45;0.80;;;;;;;;;;4997641;28;20488;-18
2023/10/28 01:02:51;;;;;;;2.35;1.52;;;;;;;;;;4996851;28;20038;-21
2023/10/28 01:05:17;;;;;;;1.98;1.02;;;;;;;;;;4997495;28;20389;-20
2023/10/28 01:07:47;;;;;;;1.90;1.17;;;;;;;;;;4997169;28;20037;-19
2023/10/28 01:10:24;;;;;;;1.60;0.93;;;;;;;;;;4997452;28;20353;-19
2023/10/28 01:12:50;;;;;;;2.70;0.93;;;;;;;;;;4997295;28;20323;-23
2023/10/28 01:15:16;;;;;;;2.60;0.88;;;;;;;;;;4997131;28;20438;-21
2023/10/28 01:17:43;;;;;;;1.38;1.27;;;;;;;;;;4996975;28;20037;-23
2023/10/28 01:20:10;;;;;;;2.15;0.90;;;;;;;;;;4995985;28;20026;-21
2023/10/28 01:22:37;;;;;;;2.85;1.13;;;;;;;;;;4997407;28;20353;-19
2023/10/28 01:25:03;;;;;;;1.30;0.90;;;;;;;;;;4997060;28;20090;-26
2023/10/28 01:27:30;;;;;;;1.80;1.05;;;;;;;;;;4997091;28;20018;-21
2023/10/28 01:29:56;;;;;;;1.98;1.27;;;;;;;;;;4996992;28;20030;-19
2023/10/28 01:32:22;;;;;;;2.47;0.88;;;;;;;;;;4996853;28;20106;-21
2023/10/28 01:34:52;;;;;;;2.08;0.88;;;;;;;;;;4996675;28;20030;-21
2023/10/28 01:37:19;;;;;;;2.65;1.00;;;;;;;;;;4996618;28;20030;-20
2023/10/28 01:39:48;;;;;;;2.65;0.80;;;;;;;;;;4996582;28;20026;-22
2023/10/28 01:42:17;;;;;;;0.90;0.65;;;;;;;;;;4996477;28;20057;-18
2023/10/28 01:44:45;;;;;;;0.93;0.77;;;;;;;;;;4996410;28;20061;-22
2023/10/28 01:47:11;;;;;;;1.63;0.95;;;;;;;;;;4996428;28;20050;-18
2023/10/28 01:49:38;;;;;;;1.08;0.90;;;;;;;;;;4996632;28;20030;-19
2023/10/28 01:52:07;;;;;;;1.95;0.90;;;;;;;;;;4996510;28;20030;-19
2023/10/28 01:54:36;;;;;;;2.47;1.05;;;;;;;;;;4996344;28;20335;-20
2023/10/28 01:57:06;;;;;;;2.25;1.00;;;;;;;;;;4996506;28;20108;-21
2023/10/28 01:59:39;;;;;;;2.25;1.35;;;;;;;;;;4996752;28;20041;-19
2023/10/28 02:02:05;;;;;;;1.25;0.88;;;;;;;;;;4996335;28;20026;-21
2023/10/28 02:04:32;;;;;;;1.63;0.93;;;;;;;;;;4995800;28;20042;-21
2023/10/28 02:06:58;;;;;;;1.77;1.08;;;;;;;;;;4996256;28;20041;-22
2023/10/28 02:09:25;;;;;;;3.42;0.77;;;;;;;;;;4996307;28;20034;-20
2023/10/28 02:11:52;;;;;;;3.58;0.90;;;;;;;;;;4996184;28;20354;-20
2023/10/28 02:14:23;;;;;;;1.67;1.00;;;;;;;;;;4995579;28;20113;-22
2023/10/28 02:16:49;;;;;;;1.30;0.90;;;;;;;;;;4995688;28;20030;-20
2023/10/28 02:19:17;;;;;;;1.48;0.90;;;;;;;;;;4995837;28;20030;-20
2023/10/28 02:21:44;;;;;;;2.33;0.80;;;;;;;;;;4995827;28;20030;-20
2023/10/28 02:24:10;;;;;;;3.08;0.75;;;;;;;;;;4995878;28;20030;-23
2023/10/28 02:26:36;;;;;;;1.30;0.77;;;;;;;;;;4996276;28;20381;-22
2023/10/28 02:29:02;;;;;;;2.58;1.10;;;;;;;;;;4995704;28;20500;-20
2023/10/28 02:31:29;;;;;;;1.73;1.00;;;;;;;;;;4995638;28;20026;-18
2023/10/28 02:33:55;;;;;;;1.17;0.77;;;;;;;;;;4995541;28;20450;-18
2023/10/28 02:36:21;;;;;;;1.00;0.90;;;;;;;;;;4995844;28;20030;-18
2023/10/28 02:38:47;;;;;;;1.20;1.02;;;;;;;;;;4994604;28;20030;-21
2023/10/28 02:41:14;;;;;;;1.85;1.00;;;;;;;;;;4995557;28;20097;-18
2023/10/28 02:43:40;;;;;;;1.00;0.90;;;;;;;;;;4995562;28;20038;-21
2023/10/28 02:46:07;;;;;;;1.45;0.90;;;;;;;;;;4995453;28;20033;-20
2023/10/28 02:48:34;;;;;;;0.90;0.82;;;;;;;;;;4995482;28;20081;-21
2023/10/28 02:51:05;;;;;;;2.75;1.10;;;;;;;;;;4995631;28;20022;-23
2023/10/28 02:53:31;;;;;;;2.88;0.90;;;;;;;;;;4995633;28;20429;-21
2023/10/28 02:55:58;;;;;;;0.93;0.90;;;;;;;;;;4995587;28;20441;-18
2023/10/28 02:58:24;;;;;;;1.75;1.00;;;;;;;;;;4995815;28;20101;-21
2023/10/28 03:00:50;;;;;;;4.68;1.48;;;;;;;;;;4995563;28;20022;-19
2023/10/28 03:03:16;;;;;;;1.63;0.80;;;;;;;;;;4995369;28;20043;-20
2023/10/28 03:05:42;;;;;;;0.77;0.77;;;;;;;;;;4995543;28;20445;-20
2023/10/28 03:08:08;;;;;;;1.67;1.10;;;;;;;;;;4995497;28;20030;-21
2023/10/28 03:10:34;;;;;;;1.45;0.80;;;;;;;;;;4995226;28;20362;-22
2023/10/28 03:13:00;;;;;;;1.30;0.75;;;;;;;;;;4994134;28;20018;-19
2023/10/28 03:15:27;;;;;;;1.00;0.90;;;;;;;;;;4995382;28;20133;-20
2023/10/28 03:17:53;;;;;;;5.40;1.55;;;;;;;;;;4995689;28;20022;-19
2023/10/28 03:20:20;;;;;;;1.85;1.35;;;;;;;;;;4995115;28;20157;-19
2023/10/28 03:22:47;;;;;;;3.30;1.60;;;;;;;;;;4994960;28;20037;-19
2023/10/28 03:25:13;;;;;;;3.03;1.85;;;;;;;;;;4995055;28;20030;-22
2023/10/28 03:27:39;;;;;;;0.80;0.80;;;;;;;;;;4998667;28;20023;-17
2023/10/28 03:30:06;;;;;;;1.90;0.90;;;;;;;;;;4998979;28;20049;-20
2023/10/28 03:32:32;;;;;;;1.40;0.82;;;;;;;;;;4999459;28;20327;-19
2023/10/28 03:34:58;;;;;;;3.50;1.02;;;;;;;;;;4999151;28;20069;-21
2023/10/28 03:37:24;;;;;;;1.02;0.90;;;;;;;;;;4998884;28;20089;-20
2023/10/28 03:39:50;;;;;;;5.18;1.08;;;;;;;;;;4999102;28;20034;-19
2023/10/28 03:42:17;;;;;;;0.75;0.75;;;;;;;;;;4998940;28;20093;-22
2023/10/28 03:44:43;;;;;;;2.80;1.10;;;;;;;;;;4998668;28;20045;-18
2023/10/28 03:47:09;;;;;;;0.80;0.80;;;;;;;;;;4998686;28;20339;-20
2023/10/28 03:49:36;;;;;;;1.42;0.98;;;;;;;;;;4998886;28;20361;-19
2023/10/28 03:52:02;;;;;;;0.93;0.80;;;;;;;;;;4998502;28;20019;-21
2023/10/28 03:54:29;;;;;;;4.63;0.90;;;;;;;;;;4999073;28;20030;-19
2023/10/28 03:56:55;;;;;;;1.77;1.27;;;;;;;;;;4998452;28;20068;-18
2023/10/28 03:59:21;;;;;;;1.48;0.95;;;;;;;;;;4998755;28;20026;-22
2023/10/28 04:01:47;;;;;;;1.33;1.00;;;;;;;;;;4998592;28;20462;-21
2023/10/28 04:04:14;;;;;;;2.03;1.17;;;;;;;;;;4998235;28;20074;-18
2023/10/28 04:06:40;;;;;;;1.85;0.90;;;;;;;;;;4998348;28;20054;-20
2023/10/28 04:09:07;;;;;;;3.03;0.95;;;;;;;;;;4998540;28;20057;-20
2023/10/28 04:11:33;;;;;;;1.55;0.90;;;;;;;;;;4998262;28;20177;-21
2023/10/28 04:13:59;;;;;;;1.77;0.90;;;;;;;;;;4998403;28;20027;-23
2023/10/28 04:16:25;;;;;;;1.25;0.93;;;;;;;;;;4998180;28;20058;-18
2023/10/28 04:18:52;;;;;;;1.20;1.00;;;;;;;;;;4998365;28;20101;-22
2023/10/28 04:21:18;;;;;;;1.30;0.90;;;;;;;;;;4998040;28;20030;-23
2023/10/28 04:23:44;;;;;;;2.83;1.15;;;;;;;;;;4997861;28;20042;-23
2023/10/28 04:26:10;;;;;;;2.17;1.10;;;;;;;;;;4997918;28;20097;-21
2023/10/28 04:28:38;;;;;;;1.20;0.98;;;;;;;;;;4998171;28;20401;-21
2023/10/28 04:31:04;;;;;;;10.25;3.22;;;;;;;;;;4997909;28;20091;-21
2023/10/28 04:33:31;;;;;;;1.65;0.80;;;;;;;;;;4997749;28;20531;-19
2023/10/28 04:35:57;;;;;;;1.60;0.90;;;;;;;;;;4998104;28;20388;-21
2023/10/28 04:38:23;;;;;;;1.13;0.80;;;;;;;;;;4997083;28;20361;-23
2023/10/28 04:40:50;;;;;;;2.63;1.52;;;;;;;;;;4997741;28;20085;-20
2023/10/28 04:43:16;;;;;;;0.80;0.80;;;;;;;;;;4997577;28;20357;-20
2023/10/28 04:45:43;;;;;;;1.30;0.73;;;;;;;;;;4997630;28;20018;-19
2023/10/28 04:48:15;;;;;;;2.08;1.05;;;;;;;;;;4997865;28;20026;-20
2023/10/28 04:50:41;;;;;;;1.83;1.45;;;;;;;;;;4997813;28;20033;-20
2023/10/28 04:53:08;;;;;;;2.63;0.95;;;;;;;;;;4997639;28;20101;-16
2023/10/28 04:55:34;;;;;;;2.05;0.90;;;;;;;;;;4997435;28;20030;-17
2023/10/28 04:58:02;;;;;;;1.35;0.90;;;;;;;;;;4997402;28;20018;-18
2023/10/28 05:00:28;;;;;;;1.27;0.90;;;;;;;;;;4997316;28;20026;-18
2023/10/28 05:02:54;;;;;;;1.52;1.30;;;;;;;;;;4997237;28;20042;-21
2023/10/28 05:05:20;;;;;;;1.13;0.80;;;;;;;;;;4997546;28;20030;-18
2023/10/28 05:07:47;;;;;;;0.68;0.60;;;;;;;;;;4996272;28;20461;-20
2023/10/28 05:10:13;;;;;;;1.88;0.75;;;;;;;;;;4997457;28;20030;-21
2023/10/28 05:12:40;;;;;;;1.35;0.90;;;;;;;;;;4997298;28;20022;-20
2023/10/28 05:15:08;;;;;;;1.30;0.95;;;;;;;;;;4997368;28;20046;-21
2023/10/28 05:17:34;;;;;;;1.58;0.90;;;;;;;;;;4997021;28;20050;-19
2023/10/28 05:20:01;;;;;;;0.90;0.88;;;;;;;;;;4996077;28;20023;-21
2023/10/28 05:22:27;;;;;;;1.52;1.20;;;;;;;;;;4997073;28;20027;-21
2023/10/28 05:24:54;;;;;;;1.55;1.25;;;;;;;;;;4996779;28;20058;-22
2023/10/28 05:27:20;;;;;;;1.08;0.80;;;;;;;;;;4997109;28;20019;-20
2023/10/28 05:29:46;;;;;;;2.17;1.13;;;;;;;;;;4996784;28;20113;-21
2023/10/28 05:32:12;;;;;;;1.77;1.17;;;;;;;;;;4996680;28;20101;-21
2023/10/28 05:34:39;;;;;;;0.90;0.88;;;;;;;;;;4996974;28;20561;-21
2023/10/28 05:37:07;;;;;;;1.35;0.90;;;;;;;;;;4996656;28;20369;-19
2023/10/28 05:39:33;;;;;;;1.88;0.93;;;;;;;;;;4996866;28;20058;-22
2023/10/28 05:41:59;;;;;;;1.02;1.00;;;;;;;;;;4996532;28;20037;-18
2023/10/28 05:44:25;;;;;;;0.65;0.65;;;;;;;;;;4996693;28;20031;-19
2023/10/28 05:46:51;;;;;;;0.80;0.65;;;;;;;;;;4996755;28;20093;-20
2023/10/28 05:49:17;;;;;;;1.75;1.00;;;;;;;;;;4995861;28;20405;-22
2023/10/28 05:51:43;;;;;;;0.70;0.70;;;;;;;;;;4996291;28;20025;-23
2023/10/28 05:54:11;;;;;;;1.23;1.13;;;;;;;;;;4996245;28;20030;-21
2023/10/28 05:56:37;;;;;;;1.00;0.90;;;;;;;;;;4996525;28;20106;-23
2023/10/28 05:59:03;;;;;;;1.05;0.90;;;;;;;;;;4996273;28;20030;-19
2023/10/28 06:01:29;;;;;;;1.50;1.00;;;;;;;;;;4996484;28;20034;-21
2023/10/28 06:03:55;;;;;;;1.38;1.27;;;;;;;;;;4995815;28;20046;-18
2023/10/28 06:06:22;;;;;;;1.17;1.08;;;;;;;;;;4996090;28;20135;-22
2023/10/28 06:08:48;;;;;;;1.13;0.90;;;;;;;;;;4995126;28;20022;-18
2023/10/28 06:11:14;;;;;;;1.63;1.00;;;;;;;;;;4996030;28;20037;-17
2023/10/28 06:13:40;;;;;;;1.38;0.77;;;;;;;;;;4996416;28;20070;-19
2023/10/28 06:16:06;;;;;;;1.23;0.90;;;;;;;;;;4996188;28;20077;-21
2023/10/28 06:18:33;;;;;;;0.80;0.80;;;;;;;;;;4995902;28;20037;-17
2023/10/28 06:21:00;;;;;;;1.20;1.00;;;;;;;;;;4995849;28;20363;-20
2023/10/28 06:23:26;;;;;;;1.20;1.13;;;;;;;;;;4995701;28;20026;-22
2023/10/28 06:25:52;;;;;;;1.00;0.82;;;;;;;;;;4995786;28;20358;-23
2023/10/28 06:28:18;;;;;;;1.25;0.98;;;;;;;;;;4995728;28;20023;-26
2023/10/28 06:30:52;;;;;;;3.10;1.13;;;;;;;;;;4995954;28;20061;-21
2023/10/28 06:33:18;;;;;;;1.38;0.60;;;;;;;;;;4995612;28;20030;-22
2023/10/28 06:35:45;;;;;;;1.25;1.15;;;;;;;;;;4996176;28;20046;-20
2023/10/28 06:38:12;;;;;;;2.05;1.88;;;;;;;;;;4995612;28;20023;-21
2023/10/28 06:40:38;;;;;;;1.42;1.15;;;;;;;;;;4995579;28;20475;-22
2023/10/28 06:43:05;;;;;;;1.77;0.80;;;;;;;;;;4995328;28;20034;-23
2023/10/28 06:45:31;;;;;;;1.15;0.80;;;;;;;;;;4995476;28;20030;-21
2023/10/28 06:47:57;;;;;;;1.80;0.80;;;;;;;;;;4995488;28;20054;-20
2023/10/28 06:50:24;;;;;;;1.38;0.80;;;;;;;;;;4995433;28;20446;-19
2023/10/28 06:52:50;;;;;;;0.98;0.98;;;;;;;;;;4995584;28;20472;-19
2023/10/28 06:55:17;;;;;;;1.77;1.58;;;;;;;;;;4995656;28;20164;-17
2023/10/28 06:57:44;;;;;;;1.25;0.80;;;;;;;;;;4996123;28;20112;-18
2023/10/28 07:00:15;;;;;;;0.93;0.68;;;;;;;;;;4995289;28;20030;-22
2023/10/28 07:02:41;;;;;;;;;;;;;;;;;;4995661;28;20071;-21
2023/10/28 07:05:08;;;;;;;1.42;0.90;;;;;;;;;;4995074;28;19933;-20
2023/10/28 07:07:35;;;;;;;1.45;1.10;;;;;;;;;;4995777;28;20489;-22
2023/10/28 07:10:01;;;;;;;0.80;0.80;;;;;;;;;;4994308;28;20026;-20
2023/10/28 07:12:28;;;;;;;0.98;0.95;;;;;;;;;;4995655;28;20049;-19
2023/10/28 07:14:55;;;;;;;0.95;0.70;;;;;;;;;;4995101;28;20034;-21
2023/10/28 07:17:22;;;;;;;1.23;0.80;;;;;;;;;;4995159;28;20031;-22
2023/10/28 07:19:48;;;;;;;0.80;0.80;;;;;;;;;;4995130;28;20030;-21
2023/10/28 07:22:21;;;;;;;0.70;0.70;;;;;;;;;;4995310;28;20358;-20
2023/10/28 07:24:47;;;;;;;0.88;0.80;;;;;;;;;;4995570;28;20469;-19
2023/10/28 07:27:13;;;;;;;1.88;1.25;;;;;;;;;;4995032;28;20018;-21
2023/10/28 07:29:40;;;;;;;0.77;0.77;;;;;;;;;;4995548;28;20582;-18
2023/10/28 07:32:06;;;;;;;1.90;1.17;;;;;;;;;;4994979;28;20172;-21
2023/10/28 07:34:32;;;;;;;0.88;0.60;;;;;;;;;;4995281;28;20331;-21
2023/10/28 07:37:05;;;;;;;1.00;0.82;;;;;;;;;;4994973;28;20116;-22
2023/10/28 07:39:31;;;;;;;2.28;0.98;;;;;;;;;;4995512;28;20566;-20
2023/10/28 07:41:58;;;;;;;1.98;0.98;;;;;;;;;;4994875;28;20516;-20
2023/10/28 07:44:24;;;;;;;0.85;0.80;;;;;;;;;;4995110;28;20037;-26
2023/10/28 07:46:50;;;;;;;0.95;0.93;;;;;;;;;;4994870;28;20026;-21
2023/10/28 07:49:17;;;;;;;0.57;0.57;;;;;;;;;;4994864;28;20027;-22
2023/10/28 07:51:43;;;;;;;1.10;1.10;;;;;;;;;;4993910;28;20027;-19
2023/10/28 07:54:10;;;;;;;0.70;0.63;;;;;;;;;;4994750;28;20106;-18
2023/10/28 07:56:37;;;;;;;0.77;0.77;;;;;;;;;;4994742;28;20034;-21
2023/10/28 07:59:03;;;;;;;1.30;0.82;;;;;;;;;;4994755;28;20026;-25
2023/10/28 08:01:30;;;;;;;1.00;0.82;;;;;;;;;;4994786;28;20421;-18
2023/10/28 08:03:57;;;;;;;0.85;0.85;;;;;;;;;;4994419;28;20038;-23
2023/10/28 08:06:23;;;;;;;3.13;0.70;;;;;;;;;;4994746;28;20082;-17
2023/10/28 08:08:52;;;;;;;0.88;0.60;;;;;;;;;;4995001;28;20327;-18
2023/10/28 08:11:20;;;;;;;0.45;0.45;;;;;;;;;;4994661;28;20023;-21
2023/10/28 08:13:48;;;;;;;2.00;1.52;;;;;;;;;;4996325;28;20084;-19
2023/10/28 08:16:18;;;;;;;2.70;0.93;;;;;;;;;;4998231;28;20027;-20
2023/10/28 08:18:45;;;;;;;0.85;0.60;;;;;;;;;;4998129;28;20034;-23
2023/10/28 08:21:13;;;;;;;0.60;0.60;;;;;;;;;;4998139;28;20343;-24
2023/10/28 08:23:40;;;;;;;0.73;0.70;;;;;;;;;;4997908;28;20038;-20
2023/10/28 08:26:10;;;;;;;0.85;0.70;;;;;;;;;;4998327;28;20361;-19
2023/10/28 08:28:36;;;;;;;0.85;0.85;;;;;;;;;;4998278;28;20037;-21
2023/10/28 08:31:02;;;;;;;1.35;0.80;;;;;;;;;;4998223;28;20033;-21
2023/10/28 08:33:29;;;;;;;1.10;1.02;;;;;;;;;;4997791;28;20126;-19
2023/10/28 08:35:59;;;;;;;1.13;1.00;;;;;;;;;;4997794;28;20026;-20
2023/10/28 08:38:26;;;;;;;0.82;0.80;;;;;;;;;;4997812;28;20030;-20
2023/10/28 08:40:53;;;;;;;1.45;1.00;;;;;;;;;;4997736;28;20046;-19
2023/10/28 08:43:19;;;;;;;0.77;0.63;;;;;;;;;;4997712;28;20026;-21
2023/10/28 08:45:45;;;;;;;0.70;0.70;;;;;;;;;;4997617;28;20081;-18
2023/10/28 08:48:15;;;;;;;0.77;0.70;;;;;;;;;;4997612;28;20350;-24
2023/10/28 08:50:41;;;;;;;0.95;0.95;;;;;;;;;;4997572;28;20023;-22
2023/10/28 08:53:11;;;;;;;0.77;0.60;;;;;;;;;;4997477;28;20018;-20
2023/10/28 08:55:38;;;;;;;0.68;0.60;;;;;;;;;;4997737;28;20410;-21
2023/10/28 08:58:06;;;;;;;1.48;0.90;;;;;;;;;;4997458;28;20030;-20
2023/10/28 09:00:35;;;;;;;0.75;0.70;;;;;;;;;;4997358;28;20117;-19
2023/10/28 09:03:04;;;;;;;0.80;0.70;;;;;;;;;;4996082;28;20026;-20
2023/10/28 09:05:30;;;;;;;0.82;0.70;;;;;;;;;;4998136;28;20034;-19
2023/10/28 09:07:56;;;;;;;1.13;0.60;;;;;;;;;;4997814;28;20029;-24
2023/10/28 09:10:23;;;;;;;0.75;0.75;;;;;;;;;;4997235;28;20045;-23
2023/10/28 09:12:53;;;;;;;1.08;0.98;;;;;;;;;;4997373;28;20080;-19
2023/10/28 09:15:20;;;;;;;1.42;0.80;;;;;;;;;;4997144;28;20022;-19
2023/10/28 09:17:46;;;;;;;1.25;1.00;;;;;;;;;;4997059;28;20113;-20
2023/10/28 09:20:12;;;;;;;0.70;0.70;;;;;;;;;;4997310;28;20121;-19
2023/10/28 09:22:43;;;;;;;0.73;0.73;;;;;;;;;;4997171;28;20098;-19
2023/10/28 09:25:16;;;;;;;0.97;0.97;;;;;;;;;;4996737;28;20453;-20
2023/10/28 09:27:43;;;;;;;0.90;0.80;;;;;;;;;;4996941;28;20338;-19
2023/10/28 09:30:13;;;;;;;1.30;1.20;;;;;;;;;;4997133;28;20023;-19
2023/10/28 09:32:39;;;;;;;1.00;0.95;;;;;;;;;;4996732;28;20022;-19
2023/10/28 09:35:06;;;;;;;1.10;1.00;;;;;;;;;;4995766;28;20048;-21
2023/10/28 09:37:36;;;;;;;1.75;1.15;;;;;;;;;;4996698;28;20058;-19
2023/10/28 09:40:04;;;;;;;1.15;0.80;;;;;;;;;;4996940;28;20034;-20
2023/10/28 09:42:36;;;;;;;1.00;0.90;;;;;;;;;;4995652;28;20030;-19
2023/10/28 09:45:06;;;;;;;0.82;0.80;;;;;;;;;;4996471;28;20072;-19
2023/10/28 09:47:44;;;;;;;1.08;0.90;;;;;;;;;;4996753;28;20026;-18
2023/10/28 09:50:14;;;;;;;0.82;0.70;;;;;;;;;;4997066;28;20046;-19
2023/10/28 09:52:45;;;;;;;1.20;0.93;;;;;;;;;;4996318;28;20027;-18
2023/10/28 09:55:15;;;;;;;0.60;0.60;;;;;;;;;;4996714;28;20145;-20
2023/10/28 09:57:44;;;;;;;1.45;0.60;;;;;;;;;;4996318;28;20037;-22
2023/10/28 10:00:17;;;;;;;1.50;0.90;;;;;;;;;;4996557;28;20369;-21
2023/10/28 10:02:56;;;;;;;0.70;0.68;;;;;;;;;;4996469;28;20133;-23
2023/10/28 10:05:36;;;;;;;1.02;0.70;;;;;;;;;;4996080;28;20484;-20
2023/10/28 10:08:02;;;;;;;1.10;0.93;;;;;;;;;;4996396;28;20030;-18
2023/10/28 10:10:28;;;;;;;0.77;0.77;;;;;;;;;;4996068;28;20032;-19
2023/10/28 10:13:04;;;;;;;1.35;0.73;;;;;;;;;;4995981;28;20393;-17
2023/10/28 10:15:33;;;;;;;1.35;1.10;;;;;;;;;;4996030;28;20348;-20
2023/10/28 10:18:08;;;;;;;1.35;0.85;;;;;;;;;;4995992;28;20018;-19
2023/10/28 10:20:36;;;;;;;0.47;0.47;;;;;;;;;;4996222;28;20111;-21
2023/10/28 10:23:03;;;;;;;0.85;0.73;;;;;;;;;;4995791;28;20026;-18
2023/10/28 10:25:43;;;;;;;1.08;0.98;;;;;;;;;;4994900;28;20037;-24
2023/10/28 10:28:14;;;;;;;0.82;0.75;;;;;;;;;;4996130;28;20334;-23
2023/10/28 10:30:41;;;;;;;0.88;0.88;;;;;;;;;;4996021;28;20046;-20
2023/10/28 10:33:07;;;;;;;0.82;0.82;;;;;;;;;;4995871;28;20023;-21
2023/10/28 10:35:34;;;;;;;0.80;0.80;;;;;;;;;;4995474;28;20057;-22
2023/10/28 10:38:02;;;;;;;1.42;0.93;;;;;;;;;;4994627;28;20031;-19
2023/10/28 10:40:31;;;;;;;0.88;0.80;;;;;;;;;;4995563;28;20525;-21
2023/10/28 10:42:58;;;;;;;0.60;0.60;;;;;;;;;;4995413;28;20092;-17
2023/10/28 10:45:24;;;;;;;0.80;0.80;;;;;;;;;;4995977;28;20041;-24
2023/10/28 10:47:50;;;;;;;1.25;1.00;;;;;;;;;;4995518;28;20049;-19
2023/10/28 10:50:17;;;;;;;0.52;0.52;;;;;;;;;;4995702;28;20098;-20
2023/10/28 10:52:43;;;;;;;1.38;0.90;;;;;;;;;;4995613;28;20110;-21
2023/10/28 10:55:09;;;;;;;1.05;0.95;;;;;;;;;;4995380;28;20053;-22
2023/10/28 10:57:37;;;;;;;1.48;0.80;;;;;;;;;;4995370;28;20481;-21
2023/10/28 11:00:11;;;;;;;0.93;0.70;;;;;;;;;;4995327;28;20109;-19
2023/10/28 11:02:38;;;;;;;0.70;0.70;;;;;;;;;;4995526;28;20357;-17
2023/10/28 11:05:04;;;;;;;0.68;0.68;;;;;;;;;;4995052;28;20057;-19
2023/10/28 11:07:31;;;;;;;0.90;0.90;;;;;;;;;;4995520;28;20022;-19
2023/10/28 11:09:57;;;;;;;1.10;0.90;;;;;;;;;;4995775;28;20018;-21
2023/10/28 11:12:24;;;;;;;1.17;0.70;;;;;;;;;;4995122;28;20023;-19
2023/10/28 11:14:54;;;;;;;0.90;0.80;;;;;;;;;;4995153;28;20042;-18
2023/10/28 11:17:20;;;;;;;1.67;0.70;;;;;;;;;;4995174;28;20469;-19
2023/10/28 11:19:48;;;;;;;0.60;0.60;;;;;;;;;;4995133;28;20362;-20
2023/10/28 11:22:15;;;;;;;1.15;0.80;;;;;;;;;;4995011;28;20058;-21
2023/10/28 11:24:42;;;;;;;0.80;0.77;;;;;;;;;;4995272;28;20398;-21
2023/10/28 11:27:08;;;;;;;0.80;0.80;;;;;;;;;;4995093;28;20054;-20
2023/10/28 11:29:38;;;;;;;4.63;0.80;;;;;;;;;;4995292;28;20031;-21
2023/10/28 11:32:08;;;;;;;1.75;0.85;;;;;;;;;;4994963;28;20018;-19
2023/10/28 11:34:41;;;;;;;1.63;0.97;;;;;;;;;;4994953;28;20031;-19
2023/10/28 11:37:10;;;;;;;0.93;0.70;;;;;;;;;;4995253;28;20034;-18
2023/10/28 11:39:37;;;;;;;2.25;1.10;;;;;;;;;;4995224;28;20033;-19
2023/10/28 11:42:13;;;;;;;0.80;0.80;;;;;;;;;;4994861;28;20466;-20
2023/10/28 11:44:47;;;;;;;0.80;0.63;;;;;;;;;;4995112;28;20035;-21
2023/10/28 11:47:13;;;;;;;0.70;0.70;;;;;;;;;;4995219;28;20496;-24
2023/10/28 11:49:40;;;;;;;1.13;0.88;;;;;;;;;;4998094;28;20034;-20
2023/10/28 11:52:06;;;;;;;1.38;0.70;;;;;;;;;;4998822;28;20030;-19
2023/10/28 11:54:33;;;;;;;0.90;0.90;;;;;;;;;;4998595;28;20027;-21
2023/10/28 11:56:59;;;;;;;0.80;0.80;;;;;;;;;;4998834;28;20346;-20
2023/10/28 11:59:25;;;;;;;1.67;1.00;;;;;;;;;;4998536;28;20053;-19
2023/10/28 12:01:53;;;;;;;1.25;0.88;;;;;;;;;;4998396;28;20338;-17
2023/10/28 12:04:23;;;;;;;0.85;0.85;;;;;;;;;;4998253;28;20424;-18
2023/10/28 12:06:49;;;;;;;0.80;0.70;;;;;;;;;;4998411;28;20057;-20
2023/10/28 12:09:15;;;;;;;0.95;0.80;;;;;;;;;;4998317;28;20031;-22
2023/10/28 12:11:42;;;;;;;1.23;0.85;;;;;;;;;;4998272;28;20029;-20
2023/10/28 12:14:08;;;;;;;0.77;0.77;;;;;;;;;;4998219;28;20030;-19
2023/10/28 12:16:37;;;;;;;0.85;0.85;;;;;;;;;;4998188;28;20037;-20
2023/10/28 12:19:04;;;;;;;0.85;0.70;;;;;;;;;;4998725;28;20027;-19
2023/10/28 12:21:31;;;;;;;0.93;0.85;;;;;;;;;;4998113;28;20081;-20
2023/10/28 12:23:57;;;;;;;0.85;0.63;;;;;;;;;;4997997;28;20030;-18
2023/10/28 12:26:24;;;;;;;1.63;0.93;;;;;;;;;;4998328;28;20022;-22
2023/10/28 12:28:50;;;;;;;2.17;1.23;;;;;;;;;;4998256;28;20403;-21
2023/10/28 12:31:16;;;;;;;0.75;0.75;;;;;;;;;;4998521;28;20022;-25
2023/10/28 12:33:43;;;;;;;1.42;0.70;;;;;;;;;;4997848;28;20037;-22
2023/10/28 12:36:10;;;;;;;1.35;1.17;;;;;;;;;;4997867;28;20057;-21
2023/10/28 12:38:37;;;;;;;1.30;1.10;;;;;;;;;;4997818;28;20030;-20
2023/10/28 12:41:03;;;;;;;1.58;1.10;;;;;;;;;;4997733;28;20488;-20
2023/10/28 12:43:29;;;;;;;0.90;0.90;;;;;;;;;;4997676;28;20045;-19
2023/10/28 12:45:55;;;;;;;1.23;1.00;;;;;;;;;;4997931;28;20034;-19
2023/10/28 12:48:21;;;;;;;1.85;1.00;;;;;;;;;;4997674;28;20034;-19
2023/10/28 12:50:48;;;;;;;1.10;0.90;;;;;;;;;;4997480;28;20492;-19
2023/10/28 12:53:15;;;;;;;0.85;0.80;;;;;;;;;;4997581;28;20034;-19
2023/10/28 12:55:41;;;;;;;0.98;0.90;;;;;;;;;;4997495;28;20080;-18
2023/10/28 12:58:10;;;;;;;1.45;1.30;;;;;;;;;;4997738;28;20395;-20
2023/10/28 13:00:40;;;;;;;5.68;0.98;;;;;;;;;;4996890;28;20030;-22
2023/10/28 13:03:07;;;;;;;1.48;0.98;;;;;;;;;;4997147;28;20026;-21
2023/10/28 13:05:33;;;;;;;1.45;1.23;;;;;;;;;;4997813;28;20041;-18
2023/10/28 13:07:59;;;;;;;1.30;1.13;;;;;;;;;;4997312;28;20022;-26
2023/10/28 13:10:27;;;;;;;0.95;0.82;;;;;;;;;;4997222;28;20022;-25
2023/10/28 13:12:55;;;;;;;1.77;1.67;;;;;;;;;;4997407;28;20405;-19
2023/10/28 13:15:21;;;;;;;1.80;1.58;;;;;;;;;;4997443;28;20377;-16
2023/10/28 13:17:48;;;;;;;1.00;0.88;;;;;;;;;;4997349;28;20034;-19
2023/10/28 13:20:14;;;;;;;0.90;0.90;;;;;;;;;;4997079;28;20022;-20
2023/10/28 13:22:40;;;;;;;1.88;0.80;;;;;;;;;;4996946;28;20475;-24
2023/10/28 13:25:08;;;;;;;0.98;0.75;;;;;;;;;;4996938;28;20058;-22
2023/10/28 13:27:34;;;;;;;1.23;1.10;;;;;;;;;;4996910;28;20020;-20
2023/10/28 13:30:00;;;;;;;1.55;1.00;;;;;;;;;;4997148;28;20358;-20
2023/10/28 13:32:26;;;;;;;1.23;1.13;;;;;;;;;;4997311;28;20362;-19
2023/10/28 13:34:52;;;;;;;1.30;1.20;;;;;;;;;;4996789;28;20395;-20
2023/10/28 13:37:20;;;;;;;2.03;1.83;;;;;;;;;;4996692;28;20113;-19
2023/10/28 13:39:46;;;;;;;1.15;0.98;;;;;;;;;;4996670;28;20415;-21
2023/10/28 13:42:12;;;;;;;0.98;0.80;;;;;;;;;;4996505;28;20026;-19
2023/10/28 13:44:38;;;;;;;1.00;1.00;;;;;;;;;;4996743;28;20350;-23
2023/10/28 13:47:04;;;;;;;1.77;1.48;;;;;;;;;;4996788;28;20026;-17
2023/10/28 13:49:31;;;;;;;1.35;0.77;;;;;;;;;;4996509;28;20029;-21
2023/10/28 13:52:00;;;;;;;1.30;1.20;;;;;;;;;;4996358;28;20030;-19
2023/10/28 13:54:27;;;;;;;2.90;1.40;;;;;;;;;;4996650;28;20026;-21
2023/10/28 13:56:54;;;;;;;1.35;1.25;;;;;;;;;;4996597;28;20046;-22
2023/10/28 13:59:20;;;;;;;1.85;1.02;;;;;;;;;;4996367;28;20361;-19
2023/10/28 14:01:46;;;;;;;1.42;1.00;;;;;;;;;;4996176;28;20365;-21
2023/10/28 14:04:12;;;;;;;1.55;1.02;;;;;;;;;;4996119;28;20046;-19
2023/10/28 14:06:38;;;;;;;0.80;0.80;;;;;;;;;;4996453;28;20018;-18
2023/10/28 14:09:06;;;;;;;3.00;1.30;;;;;;;;;;4996015;28;20097;-20
2023/10/28 14:11:33;;;;;;;1.75;1.23;;;;;;;;;;4995564;28;20019;-20
2023/10/28 14:13:59;;;;;;;1.30;1.02;;;;;;;;;;4996228;28;20038;-17
2023/10/28 14:16:26;;;;;;;2.17;1.23;;;;;;;;;;4996274;28;20046;-20
2023/10/28 14:18:52;;;;;;;2.20;1.05;;;;;;;;;;4996197;28;20034;-19
2023/10/28 14:21:19;;;;;;;1.20;1.00;;;;;;;;;;4996222;28;20050;-22
2023/10/28 14:23:46;;;;;;;1.83;1.15;;;;;;;;;;4995981;28;20026;-20
2023/10/28 14:26:13;;;;;;;1.35;0.85;;;;;;;;;;4995823;28;20022;-19
2023/10/28 14:28:39;;;;;;;1.42;1.00;;;;;;;;;;4996333;28;20053;-18
2023/10/28 14:31:06;;;;;;;1.20;1.10;;;;;;;;;;4995755;28;20026;-20
2023/10/28 14:33:32;;;;;;;1.70;1.20;;;;;;;;;;4995703;28;20173;-21
2023/10/28 14:36:04;;;;;;;1.67;0.98;;;;;;;;;;4995655;28;20069;-19
2023/10/28 14:38:31;;;;;;;1.27;1.10;;;;;;;;;;4995955;28;20022;-20
2023/10/28 14:40:57;;;;;;;1.55;1.45;;;;;;;;;;4995546;28;20037;-20
2023/10/28 14:43:24;;;;;;;0.88;0.88;;;;;;;;;;4995496;28;20026;-22